sensor_id;sensor_type;location;lat;lon;timestamp;temperature;humidity
5689;DHT22;2869;50.432;8.680;2023-11-19T00:00:25;6.80;99.90
5689;DHT22;2869;50.432;8.680;2023-11-19T00:02:51;6.80;99.90
5689;DHT22;2869;50.432;8.680;2023-11-19T00:05:18;6.80;99.90
5689;DHT22;2869;50.432;8.680;2023-11-19T00:07:44;6.80;99.90
5689;DHT22;2869;50.432;8.680;2023-11-19T00:10:13;6.90;99.90
5689;DHT22;2869;50.432;8.680;2023-11-19T00:12:41;6.90;99.90
5689;DHT22;2869;50.432;8.680;2023-11-19T00:15:08;6.90;99.90
5689;DHT22;2869;50.432;8.680;2023-11-19T00:17:36;6.90;99.90
5689;DHT22;2869;50.432;8.680;2023-11-19T00:20:03;6.90;99.90
5689;DHT22;2869;50.432;8.680;2023-11-19T00:22:31;6.90;99.90
5689;DHT22;2869;50.432;8.680;2023-11-19T00:24:58;6.90;99.90
5689;DHT22;2869;50.432;8.680;2023-11-19T00:27:26;6.90;99.90
5689;DHT22;2869;50.432;8.680;2023-11-19T00:29:52;6.90;99.90
5689;DHT22;2869;50.432;8.680;2023-11-19T00:32:19;6.90;99.90
5689;DHT22;2869;50.432;8.680;2023-11-19T00:34:45;6.90;99.90
5689;DHT22;2869;50.432;8.680;2023-11-19T00:37:13;6.90;99.90
5689;DHT22;2869;50.432;8.680;2023-11-19T00:39:40;6.90;99.90
5689;DHT22;2869;50.432;8.680;2023-11-19T00:42:07;6.90;99.90
5689;DHT22;2869;50.432;8.680;2023-11-19T00:44:36;6.90;99.90
5689;DHT22;2869;50.432;8.680;2023-11-19T00:47:02;6.90;99.90
5689;DHT22;2869;50.432;8.680;2023-11-19T00:49:30;6.90;99.90
5689;DHT22;2869;50.432;8.680;2023-11-19T00:51:58;6.90;99.90
5689;DHT22;2869;50.432;8.680;2023-11-19T00:54:24;6.90;99.90
5689;DHT22;2869;50.432;8.680;2023-11-19T00:56:51;7.00;99.90
5689;DHT22;2869;50.432;8.680;2023-11-19T00:59:17;7.00;99.90
5689;DHT22;2869;50.432;8.680;2023-11-19T01:01:45;7.00;99.90
5689;DHT22;2869;50.432;8.680;2023-11-19T01:04:13;7.00;99.90
5689;DHT22;2869;50.432;8.680;2023-11-19T01:06:39;7.10;99.90
5689;DHT22;2869;50.432;8.680;2023-11-19T01:09:07;7.10;99.90
5689;DHT22;2869;50.432;8.680;2023-11-19T01:11:34;7.10;99.90
5689;DHT22;2869;50.432;8.680;2023-11-19T01:14:00;7.10;99.90
5689;DHT22;2869;50.432;8.680;2023-11-19T01:16:27;7.20;99.90
5689;DHT22;2869;50.432;8.680;2023-11-19T01:18:55;7.20;99.90
5689;DHT22;2869;50.432;8.680;2023-11-19T01:21:21;7.20;99.90
5689;DHT22;2869;50.432;8.680;2023-11-19T01:23:48;7.20;99.90
5689;DHT22;2869;50.432;8.680;2023-11-19T01:26:14;7.20;99.90
5689;DHT22;2869;50.432;8.680;2023-11-19T01:28:41;7.20;99.90
5689;DHT22;2869;50.432;8.680;2023-11-19T01:31:10;7.20;99.90
5689;DHT22;2869;50.432;8.680;2023-11-19T01:33:36;7.30;99.90
5689;DHT22;2869;50.432;8.680;2023-11-19T01:36:05;7.30;99.90
5689;DHT22;2869;50.432;8.680;2023-11-19T01:38:33;7.30;99.90
5689;DHT22;2869;50.432;8.680;2023-11-19T01:41:00;7.30;99.90
5689;DHT22;2869;50.432;8.680;2023-11-19T01:43:33;7.30;99.90
5689;DHT22;2869;50.432;8.680;2023-11-19T01:46:00;7.40;99.90
5689;DHT22;2869;50.432;8.680;2023-11-19T01:48:26;7.40;99.90
5689;DHT22;2869;50.432;8.680;2023-11-19T01:50:53;7.40;99.90
5689;DHT22;2869;50.432;8.680;2023-11-19T01:53:21;7.40;99.90
5689;DHT22;2869;50.432;8.680;2023-11-19T01:55:48;7.40;99.90
5689;DHT22;2869;50.432;8.680;2023-11-19T01:58:15;7.40;99.90
5689;DHT22;2869;50.432;8.680;2023-11-19T02:00:43;7.40;99.90
5689;DHT22;2869;50.432;8.680;2023-11-19T02:03:10;7.40;99.90
5689;DHT22;2869;50.432;8.680;2023-11-19T02:05:37;7.40;99.90
5689;DHT22;2869;50.432;8.680;2023-11-19T02:08:05;7.40;99.90
5689;DHT22;2869;50.432;8.680;2023-11-19T02:10:32;7.40;99.90
5689;DHT22;2869;50.432;8.680;2023-11-19T02:12:59;7.40;99.90
5689;DHT22;2869;50.432;8.680;2023-11-19T02:15:26;7.50;99.90
5689;DHT22;2869;50.432;8.680;2023-11-19T02:17:53;7.50;99.90
5689;DHT22;2869;50.432;8.680;2023-11-19T02:20:19;7.50;99.90
5689;DHT22;2869;50.432;8.680;2023-11-19T02:22:46;7.50;99.90
5689;DHT22;2869;50.432;8.680;2023-11-19T02:25:15;7.50;99.90
5689;DHT22;2869;50.432;8.680;2023-11-19T02:27:47;7.60;99.90
5689;DHT22;2869;50.432;8.680;2023-11-19T02:30:14;7.60;99.90
5689;DHT22;2869;50.432;8.680;2023-11-19T02:32:41;7.60;99.90
5689;DHT22;2869;50.432;8.680;2023-11-19T02:35:08;7.60;99.90
5689;DHT22;2869;50.432;8.680;2023-11-19T02:37:34;7.70;99.90
5689;DHT22;2869;50.432;8.680;2023-11-19T02:40:01;7.70;99.90
5689;DHT22;2869;50.432;8.680;2023-11-19T02:42:28;7.80;99.90
5689;DHT22;2869;50.432;8.680;2023-11-19T02:44:56;7.90;99.90
5689;DHT22;2869;50.432;8.680;2023-11-19T02:47:23;8.00;99.90
5689;DHT22;2869;50.432;8.680;2023-11-19T02:49:50;8.10;99.90
5689;DHT22;2869;50.432;8.680;2023-11-19T02:52:18;8.10;99.90
5689;DHT22;2869;50.432;8.680;2023-11-19T02:54:44;8.10;99.90
5689;DHT22;2869;50.432;8.680;2023-11-19T02:57:11;8.10;99.90
5689;DHT22;2869;50.432;8.680;2023-11-19T02:59:38;8.00;99.90
5689;DHT22;2869;50.432;8.680;2023-11-19T03:02:08;7.90;99.90
5689;DHT22;2869;50.432;8.680;2023-11-19T03:04:36;7.90;99.90
5689;DHT22;2869;50.432;8.680;2023-11-19T03:07:04;7.90;99.90
5689;DHT22;2869;50.432;8.680;2023-11-19T03:09:32;7.90;99.90
5689;DHT22;2869;50.432;8.680;2023-11-19T03:11:59;7.80;99.90
5689;DHT22;2869;50.432;8.680;2023-11-19T03:14:25;7.80;99.90
5689;DHT22;2869;50.432;8.680;2023-11-19T03:16:52;7.80;99.90
5689;DHT22;2869;50.432;8.680;2023-11-19T03:19:19;7.80;99.90
5689;DHT22;2869;50.432;8.680;2023-11-19T03:21:46;7.80;99.90
5689;DHT22;2869;50.432;8.680;2023-11-19T03:24:13;7.80;99.90
5689;DHT22;2869;50.432;8.680;2023-11-19T03:26:40;7.80;99.90
5689;DHT22;2869;50.432;8.680;2023-11-19T03:29:08;7.80;99.90
5689;DHT22;2869;50.432;8.680;2023-11-19T03:31:34;7.90;99.90
5689;DHT22;2869;50.432;8.680;2023-11-19T03:34:01;7.90;99.90
5689;DHT22;2869;50.432;8.680;2023-11-19T03:36:32;7.90;99.90
5689;DHT22;2869;50.432;8.680;2023-11-19T03:38:59;7.90;99.90
5689;DHT22;2869;50.432;8.680;2023-11-19T03:41:25;7.90;99.90
5689;DHT22;2869;50.432;8.680;2023-11-19T03:43:52;8.00;99.90
5689;DHT22;2869;50.432;8.680;2023-11-19T03:46:19;8.10;99.90
5689;DHT22;2869;50.432;8.680;2023-11-19T03:48:46;8.10;99.90
5689;DHT22;2869;50.432;8.680;2023-11-19T03:51:12;8.20;99.90
5689;DHT22;2869;50.432;8.680;2023-11-19T03:53:43;8.30;99.90
5689;DHT22;2869;50.432;8.680;2023-11-19T03:56:10;8.30;99.90
5689;DHT22;2869;50.432;8.680;2023-11-19T03:58:37;8.30;99.90
5689;DHT22;2869;50.432;8.680;2023-11-19T04:01:04;8.40;99.90
5689;DHT22;2869;50.432;8.680;2023-11-19T04:03:30;8.40;99.90
5689;DHT22;2869;50.432;8.680;2023-11-19T04:05:57;8.40;99.90
5689;DHT22;2869;50.432;8.680;2023-11-19T04:08:24;8.50;99.90
5689;DHT22;2869;50.432;8.680;2023-11-19T04:10:52;8.50;99.90
5689;DHT22;2869;50.432;8.680;2023-11-19T04:13:18;8.50;99.90
5689;DHT22;2869;50.432;8.680;2023-11-19T04:15:45;8.60;99.90
5689;DHT22;2869;50.432;8.680;2023-11-19T04:18:12;8.60;99.90
5689;DHT22;2869;50.432;8.680;2023-11-19T04:20:38;8.60;99.90
5689;DHT22;2869;50.432;8.680;2023-11-19T04:23:07;8.40;99.90
5689;DHT22;2869;50.432;8.680;2023-11-19T04:25:34;8.50;99.90
5689;DHT22;2869;50.432;8.680;2023-11-19T04:28:02;8.50;99.90
5689;DHT22;2869;50.432;8.680;2023-11-19T04:30:29;8.50;99.90
5689;DHT22;2869;50.432;8.680;2023-11-19T04:32:57;8.50;99.90
5689;DHT22;2869;50.432;8.680;2023-11-19T04:35:23;8.60;99.90
5689;DHT22;2869;50.432;8.680;2023-11-19T04:37:51;8.50;99.90
5689;DHT22;2869;50.432;8.680;2023-11-19T04:40:17;8.60;99.90
5689;DHT22;2869;50.432;8.680;2023-11-19T04:42:44;8.50;99.90
5689;DHT22;2869;50.432;8.680;2023-11-19T04:45:12;8.60;99.90
5689;DHT22;2869;50.432;8.680;2023-11-19T04:47:39;8.60;99.90
5689;DHT22;2869;50.432;8.680;2023-11-19T04:50:05;8.70;99.90
5689;DHT22;2869;50.432;8.680;2023-11-19T04:52:32;8.80;99.90
5689;DHT22;2869;50.432;8.680;2023-11-19T04:54:58;8.80;99.90
5689;DHT22;2869;50.432;8.680;2023-11-19T04:57:25;8.90;99.90
5689;DHT22;2869;50.432;8.680;2023-11-19T04:59:52;8.90;99.90
5689;DHT22;2869;50.432;8.680;2023-11-19T05:02:20;8.90;99.90
5689;DHT22;2869;50.432;8.680;2023-11-19T05:04:46;9.00;99.90
5689;DHT22;2869;50.432;8.680;2023-11-19T05:07:14;9.00;99.90
5689;DHT22;2869;50.432;8.680;2023-11-19T05:09:40;9.10;99.90
5689;DHT22;2869;50.432;8.680;2023-11-19T05:12:08;9.10;99.90
5689;DHT22;2869;50.432;8.680;2023-11-19T05:14:37;9.10;99.90
5689;DHT22;2869;50.432;8.680;2023-11-19T05:17:03;9.10;99.90
5689;DHT22;2869;50.432;8.680;2023-11-19T05:19:31;9.20;99.90
5689;DHT22;2869;50.432;8.680;2023-11-19T05:21:58;9.20;99.90
5689;DHT22;2869;50.432;8.680;2023-11-19T05:24:24;9.20;99.90
5689;DHT22;2869;50.432;8.680;2023-11-19T05:26:51;9.20;99.90
5689;DHT22;2869;50.432;8.680;2023-11-19T05:29:18;9.20;99.90
5689;DHT22;2869;50.432;8.680;2023-11-19T05:31:44;9.20;99.90
5689;DHT22;2869;50.432;8.680;2023-11-19T05:34:11;9.10;99.90
5689;DHT22;2869;50.432;8.680;2023-11-19T05:36:41;8.90;99.90
5689;DHT22;2869;50.432;8.680;2023-11-19T05:39:08;8.80;99.90
5689;DHT22;2869;50.432;8.680;2023-11-19T05:41:36;8.70;99.90
5689;DHT22;2869;50.432;8.680;2023-11-19T05:44:03;8.60;99.90
5689;DHT22;2869;50.432;8.680;2023-11-19T05:46:29;8.50;99.90
5689;DHT22;2869;50.432;8.680;2023-11-19T05:48:56;8.40;99.90
5689;DHT22;2869;50.432;8.680;2023-11-19T05:51:22;8.30;99.90
5689;DHT22;2869;50.432;8.680;2023-11-19T05:53:50;8.30;99.90
5689;DHT22;2869;50.432;8.680;2023-11-19T05:56:17;8.20;99.90
5689;DHT22;2869;50.432;8.680;2023-11-19T05:58:46;8.20;99.90
5689;DHT22;2869;50.432;8.680;2023-11-19T06:01:13;8.20;99.90
5689;DHT22;2869;50.432;8.680;2023-11-19T06:03:39;8.20;99.90
5689;DHT22;2869;50.432;8.680;2023-11-19T06:06:08;8.10;99.90
5689;DHT22;2869;50.432;8.680;2023-11-19T06:08:35;8.10;99.90
5689;DHT22;2869;50.432;8.680;2023-11-19T06:11:04;8.10;99.90
5689;DHT22;2869;50.432;8.680;2023-11-19T06:13:31;8.10;99.90
5689;DHT22;2869;50.432;8.680;2023-11-19T06:15:57;8.10;99.90
5689;DHT22;2869;50.432;8.680;2023-11-19T06:18:24;8.10;99.90
5689;DHT22;2869;50.432;8.680;2023-11-19T06:20:50;8.50;99.90
5689;DHT22;2869;50.432;8.680;2023-11-19T06:23:17;8.60;99.90
5689;DHT22;2869;50.432;8.680;2023-11-19T06:25:43;8.50;99.90
5689;DHT22;2869;50.432;8.680;2023-11-19T06:28:11;8.40;99.90
5689;DHT22;2869;50.432;8.680;2023-11-19T06:30:38;8.30;99.90
5689;DHT22;2869;50.432;8.680;2023-11-19T06:33:04;8.10;99.90
5689;DHT22;2869;50.432;8.680;2023-11-19T06:35:31;8.00;99.90
5689;DHT22;2869;50.432;8.680;2023-11-19T06:38:01;7.90;99.90
5689;DHT22;2869;50.432;8.680;2023-11-19T06:40:28;7.90;99.90
5689;DHT22;2869;50.432;8.680;2023-11-19T06:42:54;7.80;99.90
5689;DHT22;2869;50.432;8.680;2023-11-19T06:45:23;7.80;99.90
5689;DHT22;2869;50.432;8.680;2023-11-19T06:47:49;7.70;99.90
5689;DHT22;2869;50.432;8.680;2023-11-19T06:50:16;7.70;99.90
5689;DHT22;2869;50.432;8.680;2023-11-19T06:52:44;7.70;99.90
5689;DHT22;2869;50.432;8.680;2023-11-19T06:55:11;7.80;99.90
5689;DHT22;2869;50.432;8.680;2023-11-19T06:57:37;7.80;99.90
5689;DHT22;2869;50.432;8.680;2023-11-19T07:00:04;7.90;99.90
5689;DHT22;2869;50.432;8.680;2023-11-19T07:02:33;8.10;99.90
5689;DHT22;2869;50.432;8.680;2023-11-19T07:04:59;8.40;99.90
5689;DHT22;2869;50.432;8.680;2023-11-19T07:07:26;8.70;99.90
5689;DHT22;2869;50.432;8.680;2023-11-19T07:09:52;9.10;99.90
5689;DHT22;2869;50.432;8.680;2023-11-19T07:12:19;9.40;99.90
5689;DHT22;2869;50.432;8.680;2023-11-19T07:14:45;9.60;99.90
5689;DHT22;2869;50.432;8.680;2023-11-19T07:17:12;9.70;99.90
5689;DHT22;2869;50.432;8.680;2023-11-19T07:19:40;9.80;99.90
5689;DHT22;2869;50.432;8.680;2023-11-19T07:22:06;10.00;99.90
5689;DHT22;2869;50.432;8.680;2023-11-19T07:24:33;10.10;99.90
5689;DHT22;2869;50.432;8.680;2023-11-19T07:26:59;10.20;99.90
5689;DHT22;2869;50.432;8.680;2023-11-19T07:29:28;10.30;99.90
5689;DHT22;2869;50.432;8.680;2023-11-19T07:31:55;10.40;99.90
5689;DHT22;2869;50.432;8.680;2023-11-19T07:34:22;10.50;99.90
5689;DHT22;2869;50.432;8.680;2023-11-19T07:36:50;10.50;99.90
5689;DHT22;2869;50.432;8.680;2023-11-19T07:39:16;10.60;99.90
5689;DHT22;2869;50.432;8.680;2023-11-19T07:41:43;10.70;99.90
5689;DHT22;2869;50.432;8.680;2023-11-19T07:44:09;10.70;99.90
5689;DHT22;2869;50.432;8.680;2023-11-19T07:46:36;10.70;99.90
5689;DHT22;2869;50.432;8.680;2023-11-19T07:49:03;10.90;99.90
5689;DHT22;2869;50.432;8.680;2023-11-19T07:51:29;11.20;99.90
5689;DHT22;2869;50.432;8.680;2023-11-19T07:53:58;12.00;99.90
5689;DHT22;2869;50.432;8.680;2023-11-19T07:56:24;13.10;99.90
5689;DHT22;2869;50.432;8.680;2023-11-19T07:58:51;13.90;99.90
5689;DHT22;2869;50.432;8.680;2023-11-19T08:01:18;14.80;99.90
5689;DHT22;2869;50.432;8.680;2023-11-19T08:03:44;15.70;99.90
5689;DHT22;2869;50.432;8.680;2023-11-19T08:06:11;15.80;99.90
5689;DHT22;2869;50.432;8.680;2023-11-19T08:08:37;15.30;99.90
5689;DHT22;2869;50.432;8.680;2023-11-19T08:11:05;14.30;99.90
5689;DHT22;2869;50.432;8.680;2023-11-19T08:13:32;13.70;99.90
5689;DHT22;2869;50.432;8.680;2023-11-19T08:15:59;13.20;99.90
5689;DHT22;2869;50.432;8.680;2023-11-19T08:18:25;12.80;99.90
5689;DHT22;2869;50.432;8.680;2023-11-19T08:20:52;12.50;99.90
5689;DHT22;2869;50.432;8.680;2023-11-19T08:23:19;12.50;99.90
5689;DHT22;2869;50.432;8.680;2023-11-19T08:25:46;12.60;99.90
5689;DHT22;2869;50.432;8.680;2023-11-19T08:28:13;12.60;99.90
5689;DHT22;2869;50.432;8.680;2023-11-19T08:30:40;12.70;99.90
5689;DHT22;2869;50.432;8.680;2023-11-19T08:33:06;12.70;99.90
5689;DHT22;2869;50.432;8.680;2023-11-19T08:35:33;12.80;99.90
5689;DHT22;2869;50.432;8.680;2023-11-19T08:38:00;13.10;99.90
5689;DHT22;2869;50.432;8.680;2023-11-19T08:40:27;13.20;99.90
5689;DHT22;2869;50.432;8.680;2023-11-19T08:42:55;13.50;99.90
5689;DHT22;2869;50.432;8.680;2023-11-19T08:45:23;13.60;99.90
5689;DHT22;2869;50.432;8.680;2023-11-19T08:47:49;13.70;99.90
5689;DHT22;2869;50.432;8.680;2023-11-19T08:50:16;13.90;99.90
5689;DHT22;2869;50.432;8.680;2023-11-19T08:52:42;14.10;99.90
5689;DHT22;2869;50.432;8.680;2023-11-19T08:55:09;14.30;99.90
5689;DHT22;2869;50.432;8.680;2023-11-19T08:57:37;14.40;99.90
5689;DHT22;2869;50.432;8.680;2023-11-19T09:00:03;14.50;99.90
5689;DHT22;2869;50.432;8.680;2023-11-19T09:02:34;14.60;99.90
5689;DHT22;2869;50.432;8.680;2023-11-19T09:05:02;14.60;99.90
5689;DHT22;2869;50.432;8.680;2023-11-19T09:07:28;14.80;99.90
5689;DHT22;2869;50.432;8.680;2023-11-19T09:09:55;14.90;99.90
5689;DHT22;2869;50.432;8.680;2023-11-19T09:12:21;15.10;99.90
5689;DHT22;2869;50.432;8.680;2023-11-19T09:14:48;15.20;99.90
5689;DHT22;2869;50.432;8.680;2023-11-19T09:17:15;14.90;99.90
5689;DHT22;2869;50.432;8.680;2023-11-19T09:19:44;15.00;99.90
5689;DHT22;2869;50.432;8.680;2023-11-19T09:22:11;14.90;99.90
5689;DHT22;2869;50.432;8.680;2023-11-19T09:24:37;15.00;99.90
5689;DHT22;2869;50.432;8.680;2023-11-19T09:27:04;15.10;99.90
5689;DHT22;2869;50.432;8.680;2023-11-19T09:29:31;15.10;99.90
5689;DHT22;2869;50.432;8.680;2023-11-19T09:31:57;15.20;99.90
5689;DHT22;2869;50.432;8.680;2023-11-19T09:34:24;15.50;99.90
5689;DHT22;2869;50.432;8.680;2023-11-19T09:36:52;15.50;99.90
5689;DHT22;2869;50.432;8.680;2023-11-19T09:39:18;15.70;99.90
5689;DHT22;2869;50.432;8.680;2023-11-19T09:41:46;15.60;99.90
5689;DHT22;2869;50.432;8.680;2023-11-19T09:44:13;15.50;99.90
5689;DHT22;2869;50.432;8.680;2023-11-19T09:46:43;15.50;99.90
5689;DHT22;2869;50.432;8.680;2023-11-19T09:49:10;15.40;99.90
5689;DHT22;2869;50.432;8.680;2023-11-19T09:51:37;15.30;99.90
5689;DHT22;2869;50.432;8.680;2023-11-19T09:54:05;15.20;99.90
5689;DHT22;2869;50.432;8.680;2023-11-19T09:56:32;15.20;99.90
5689;DHT22;2869;50.432;8.680;2023-11-19T09:58:59;15.30;99.90
5689;DHT22;2869;50.432;8.680;2023-11-19T10:01:25;15.40;99.90
5689;DHT22;2869;50.432;8.680;2023-11-19T10:03:52;15.40;99.90
5689;DHT22;2869;50.432;8.680;2023-11-19T10:06:21;15.40;99.90
5689;DHT22;2869;50.432;8.680;2023-11-19T10:08:48;15.30;99.90
5689;DHT22;2869;50.432;8.680;2023-11-19T10:11:15;15.30;99.90
5689;DHT22;2869;50.432;8.680;2023-11-19T10:13:43;15.50;99.90
5689;DHT22;2869;50.432;8.680;2023-11-19T10:16:13;15.60;99.90
5689;DHT22;2869;50.432;8.680;2023-11-19T10:18:42;15.90;99.90
5689;DHT22;2869;50.432;8.680;2023-11-19T10:21:09;16.10;99.90
5689;DHT22;2869;50.432;8.680;2023-11-19T10:23:47;16.40;99.90
5689;DHT22;2869;50.432;8.680;2023-11-19T10:26:13;16.30;99.90
5689;DHT22;2869;50.432;8.680;2023-11-19T10:28:41;16.10;99.90
5689;DHT22;2869;50.432;8.680;2023-11-19T10:31:11;16.00;99.90
5689;DHT22;2869;50.432;8.680;2023-11-19T10:33:38;16.10;99.90
5689;DHT22;2869;50.432;8.680;2023-11-19T10:36:05;16.20;99.90
5689;DHT22;2869;50.432;8.680;2023-11-19T10:38:32;16.20;99.90
5689;DHT22;2869;50.432;8.680;2023-11-19T10:40:58;16.20;99.90
5689;DHT22;2869;50.432;8.680;2023-11-19T10:43:25;15.90;99.90
5689;DHT22;2869;50.432;8.680;2023-11-19T10:45:54;15.80;99.90
5689;DHT22;2869;50.432;8.680;2023-11-19T10:48:34;15.80;99.90
5689;DHT22;2869;50.432;8.680;2023-11-19T10:51:01;15.80;99.90
5689;DHT22;2869;50.432;8.680;2023-11-19T10:53:30;15.80;99.90
5689;DHT22;2869;50.432;8.680;2023-11-19T10:55:58;15.80;99.90
5689;DHT22;2869;50.432;8.680;2023-11-19T10:58:25;15.80;99.90
5689;DHT22;2869;50.432;8.680;2023-11-19T11:00:57;15.70;99.90
5689;DHT22;2869;50.432;8.680;2023-11-19T11:03:24;15.80;99.90
5689;DHT22;2869;50.432;8.680;2023-11-19T11:05:52;15.80;99.90
5689;DHT22;2869;50.432;8.680;2023-11-19T11:08:19;15.90;99.90
5689;DHT22;2869;50.432;8.680;2023-11-19T11:10:48;16.00;99.90
5689;DHT22;2869;50.432;8.680;2023-11-19T11:13:18;15.80;99.90
5689;DHT22;2869;50.432;8.680;2023-11-19T11:15:44;15.80;99.90
5689;DHT22;2869;50.432;8.680;2023-11-19T11:18:13;15.80;99.90
5689;DHT22;2869;50.432;8.680;2023-11-19T11:20:40;15.80;99.90
5689;DHT22;2869;50.432;8.680;2023-11-19T11:26:00;16.20;99.90
5689;DHT22;2869;50.432;8.680;2023-11-19T11:28:32;16.50;99.90
5689;DHT22;2869;50.432;8.680;2023-11-19T11:31:05;16.50;99.90
5689;DHT22;2869;50.432;8.680;2023-11-19T11:33:39;16.30;99.90
5689;DHT22;2869;50.432;8.680;2023-11-19T11:36:11;16.50;99.90
5689;DHT22;2869;50.432;8.680;2023-11-19T11:38:40;16.70;99.90
5689;DHT22;2869;50.432;8.680;2023-11-19T11:41:16;16.80;99.90
5689;DHT22;2869;50.432;8.680;2023-11-19T11:43:44;17.10;99.90
5689;DHT22;2869;50.432;8.680;2023-11-19T11:48:54;17.20;99.90
5689;DHT22;2869;50.432;8.680;2023-11-19T11:51:22;17.20;99.90
5689;DHT22;2869;50.432;8.680;2023-11-19T11:54:09;17.10;99.90
5689;DHT22;2869;50.432;8.680;2023-11-19T11:56:36;16.80;99.90
5689;DHT22;2869;50.432;8.680;2023-11-19T11:59:03;16.40;99.90
5689;DHT22;2869;50.432;8.680;2023-11-19T12:01:29;16.30;99.90
5689;DHT22;2869;50.432;8.680;2023-11-19T12:03:57;16.50;99.90
5689;DHT22;2869;50.432;8.680;2023-11-19T12:06:26;16.80;99.90
5689;DHT22;2869;50.432;8.680;2023-11-19T12:08:53;17.10;99.90
5689;DHT22;2869;50.432;8.680;2023-11-19T12:11:25;17.50;99.90
5689;DHT22;2869;50.432;8.680;2023-11-19T12:13:53;17.70;99.90
5689;DHT22;2869;50.432;8.680;2023-11-19T12:16:20;17.60;99.90
5689;DHT22;2869;50.432;8.680;2023-11-19T12:18:47;17.40;99.90
5689;DHT22;2869;50.432;8.680;2023-11-19T12:21:28;17.40;99.90
5689;DHT22;2869;50.432;8.680;2023-11-19T12:23:55;17.40;99.90
5689;DHT22;2869;50.432;8.680;2023-11-19T12:26:31;17.40;99.90
5689;DHT22;2869;50.432;8.680;2023-11-19T12:28:58;17.50;99.90
5689;DHT22;2869;50.432;8.680;2023-11-19T12:31:25;17.50;99.90
5689;DHT22;2869;50.432;8.680;2023-11-19T12:33:52;17.60;99.90
5689;DHT22;2869;50.432;8.680;2023-11-19T12:36:18;17.70;99.90
5689;DHT22;2869;50.432;8.680;2023-11-19T12:38:46;17.80;99.90
5689;DHT22;2869;50.432;8.680;2023-11-19T12:41:13;17.40;99.90
5689;DHT22;2869;50.432;8.680;2023-11-19T12:43:43;17.50;99.90
5689;DHT22;2869;50.432;8.680;2023-11-19T12:46:19;17.50;99.90
5689;DHT22;2869;50.432;8.680;2023-11-19T12:48:46;17.60;99.90
5689;DHT22;2869;50.432;8.680;2023-11-19T12:51:13;17.90;99.90
5689;DHT22;2869;50.432;8.680;2023-11-19T12:53:48;18.00;99.90
5689;DHT22;2869;50.432;8.680;2023-11-19T12:56:16;17.90;99.90
5689;DHT22;2869;50.432;8.680;2023-11-19T12:58:42;17.90;99.90
5689;DHT22;2869;50.432;8.680;2023-11-19T13:01:09;17.80;99.90
5689;DHT22;2869;50.432;8.680;2023-11-19T13:03:36;17.40;99.90
5689;DHT22;2869;50.432;8.680;2023-11-19T13:06:04;16.80;99.90
5689;DHT22;2869;50.432;8.680;2023-11-19T13:08:36;16.50;99.90
5689;DHT22;2869;50.432;8.680;2023-11-19T13:11:05;16.80;99.90
5689;DHT22;2869;50.432;8.680;2023-11-19T13:13:32;17.00;99.90
5689;DHT22;2869;50.432;8.680;2023-11-19T13:16:01;17.10;99.90
5689;DHT22;2869;50.432;8.680;2023-11-19T13:18:28;17.00;99.90
5689;DHT22;2869;50.432;8.680;2023-11-19T13:20:54;16.80;99.90
5689;DHT22;2869;50.432;8.680;2023-11-19T13:23:22;16.70;99.90
5689;DHT22;2869;50.432;8.680;2023-11-19T13:25:49;16.30;99.90
5689;DHT22;2869;50.432;8.680;2023-11-19T13:28:16;16.30;99.90
5689;DHT22;2869;50.432;8.680;2023-11-19T13:30:43;16.20;99.90
5689;DHT22;2869;50.432;8.680;2023-11-19T13:33:10;16.10;99.90
5689;DHT22;2869;50.432;8.680;2023-11-19T13:35:37;16.30;99.90
5689;DHT22;2869;50.432;8.680;2023-11-19T13:38:05;16.30;99.90
5689;DHT22;2869;50.432;8.680;2023-11-19T13:40:34;16.40;99.90
5689;DHT22;2869;50.432;8.680;2023-11-19T13:43:00;16.50;99.90
5689;DHT22;2869;50.432;8.680;2023-11-19T13:45:28;16.40;99.90
5689;DHT22;2869;50.432;8.680;2023-11-19T13:47:54;15.90;99.90
5689;DHT22;2869;50.432;8.680;2023-11-19T13:50:21;15.70;99.90
5689;DHT22;2869;50.432;8.680;2023-11-19T13:52:48;15.70;99.90
5689;DHT22;2869;50.432;8.680;2023-11-19T13:55:14;15.40;99.90
5689;DHT22;2869;50.432;8.680;2023-11-19T13:57:41;15.50;99.90
5689;DHT22;2869;50.432;8.680;2023-11-19T14:00:09;15.70;99.90
5689;DHT22;2869;50.432;8.680;2023-11-19T14:02:39;15.80;99.90
5689;DHT22;2869;50.432;8.680;2023-11-19T14:05:06;15.80;99.90
5689;DHT22;2869;50.432;8.680;2023-11-19T14:07:32;15.50;99.90
5689;DHT22;2869;50.432;8.680;2023-11-19T14:09:59;15.30;99.90
5689;DHT22;2869;50.432;8.680;2023-11-19T14:12:25;15.40;99.90
5689;DHT22;2869;50.432;8.680;2023-11-19T14:14:52;15.20;99.90
5689;DHT22;2869;50.432;8.680;2023-11-19T14:17:19;15.00;99.90
5689;DHT22;2869;50.432;8.680;2023-11-19T14:19:47;14.80;99.90
5689;DHT22;2869;50.432;8.680;2023-11-19T14:22:14;14.80;99.90
5689;DHT22;2869;50.432;8.680;2023-11-19T14:24:40;14.90;99.90
5689;DHT22;2869;50.432;8.680;2023-11-19T14:27:08;14.90;99.90
5689;DHT22;2869;50.432;8.680;2023-11-19T14:29:34;15.00;99.90
5689;DHT22;2869;50.432;8.680;2023-11-19T14:32:01;15.00;99.90
5689;DHT22;2869;50.432;8.680;2023-11-19T14:34:28;15.00;99.90
5689;DHT22;2869;50.432;8.680;2023-11-19T14:36:56;15.00;99.90
5689;DHT22;2869;50.432;8.680;2023-11-19T14:39:22;15.00;99.90
5689;DHT22;2869;50.432;8.680;2023-11-19T14:41:49;15.00;99.90
5689;DHT22;2869;50.432;8.680;2023-11-19T14:44:16;15.00;99.90
5689;DHT22;2869;50.432;8.680;2023-11-19T14:46:42;14.80;99.90
5689;DHT22;2869;50.432;8.680;2023-11-19T14:49:09;14.70;99.90
5689;DHT22;2869;50.432;8.680;2023-11-19T14:51:36;14.40;99.90
5689;DHT22;2869;50.432;8.680;2023-11-19T14:54:04;14.20;99.90
5689;DHT22;2869;50.432;8.680;2023-11-19T14:56:31;14.10;99.90
5689;DHT22;2869;50.432;8.680;2023-11-19T14:58:58;14.10;99.90
5689;DHT22;2869;50.432;8.680;2023-11-19T15:01:24;14.00;99.90
5689;DHT22;2869;50.432;8.680;2023-11-19T15:03:52;13.90;99.90
5689;DHT22;2869;50.432;8.680;2023-11-19T15:06:22;13.90;99.90
5689;DHT22;2869;50.432;8.680;2023-11-19T15:08:48;13.90;99.90
5689;DHT22;2869;50.432;8.680;2023-11-19T15:11:16;13.80;99.90
5689;DHT22;2869;50.432;8.680;2023-11-19T15:13:43;13.80;99.90
5689;DHT22;2869;50.432;8.680;2023-11-19T15:16:09;13.80;99.90
5689;DHT22;2869;50.432;8.680;2023-11-19T15:18:37;13.80;99.90
5689;DHT22;2869;50.432;8.680;2023-11-19T15:21:03;13.80;99.90
5689;DHT22;2869;50.432;8.680;2023-11-19T15:23:30;13.70;99.90
5689;DHT22;2869;50.432;8.680;2023-11-19T15:25:57;13.70;99.90
5689;DHT22;2869;50.432;8.680;2023-11-19T15:28:24;13.60;99.90
5689;DHT22;2869;50.432;8.680;2023-11-19T15:30:51;13.60;99.90
5689;DHT22;2869;50.432;8.680;2023-11-19T15:33:17;13.50;99.90
5689;DHT22;2869;50.432;8.680;2023-11-19T15:35:44;13.50;99.90
5689;DHT22;2869;50.432;8.680;2023-11-19T15:38:10;13.40;99.90
5689;DHT22;2869;50.432;8.680;2023-11-19T15:40:37;13.30;99.90
5689;DHT22;2869;50.432;8.680;2023-11-19T15:43:03;13.20;99.90
5689;DHT22;2869;50.432;8.680;2023-11-19T15:45:33;13.20;99.90
5689;DHT22;2869;50.432;8.680;2023-11-19T15:48:02;13.10;99.90
5689;DHT22;2869;50.432;8.680;2023-11-19T15:50:29;13.00;99.90
5689;DHT22;2869;50.432;8.680;2023-11-19T15:52:56;13.00;99.90
5689;DHT22;2869;50.432;8.680;2023-11-19T15:55:24;12.90;99.90
5689;DHT22;2869;50.432;8.680;2023-11-19T15:57:50;12.80;99.90
5689;DHT22;2869;50.432;8.680;2023-11-19T16:00:17;12.80;99.90
5689;DHT22;2869;50.432;8.680;2023-11-19T16:02:47;12.70;99.90
5689;DHT22;2869;50.432;8.680;2023-11-19T16:05:15;12.60;99.90
5689;DHT22;2869;50.432;8.680;2023-11-19T16:07:41;12.60;99.90
5689;DHT22;2869;50.432;8.680;2023-11-19T16:10:08;12.60;99.90
5689;DHT22;2869;50.432;8.680;2023-11-19T16:12:37;12.50;99.90
5689;DHT22;2869;50.432;8.680;2023-11-19T16:15:04;12.50;99.90